Fagus, Missouri
Current Conditions -  °F | °C
As of 11:53 AM on Saturday 25 Oct 2014 (Local Time) from KPOF Reporting Station
Clear Clear  
Wind Chill: 75°   Ceiling: Unl
Heat Index: 75°   Visibility: 8mi
Dew Point: 60°   Wind: 3mph
Humidity: 60%   Direction: NA
Pressure: 30.04"   Gusts: NA
Location:  36.51°N, 90.27°W
Report Text: KPOF 251653Z AUTO VRB03KT 8SM CLR 24/16 A3004 RMK AO2 SLP171 T02390156
Loading
Personal Weather Stations






























Interactive Weather Map
Tropical Storm Tracking
New forecast layout! Learn more

10-Day Weather Forecast

Advertisements
Track Severe Weather on mobile